createdAt,value
2023-09-10T00:02:34.056Z,97.00
2023-09-10T00:05:21.038Z,97.00
2023-09-10T00:08:09.814Z,97.00
2023-09-10T00:10:57.912Z,97.10
2023-09-10T00:13:45.747Z,97.20
2023-09-10T00:16:33.480Z,97.30
2023-09-10T00:19:20.631Z,97.20
2023-09-10T00:22:07.720Z,97.30
2023-09-10T00:24:56.422Z,97.40
2023-09-10T00:27:43.791Z,97.50
2023-09-10T00:30:31.220Z,97.50
2023-09-10T00:33:19.469Z,97.60
2023-09-10T00:36:10.148Z,97.50
2023-09-10T00:38:57.372Z,97.60
2023-09-10T00:41:47.402Z,97.70
2023-09-10T00:44:34.778Z,97.80
2023-09-10T00:47:21.804Z,97.80
2023-09-10T00:50:11.131Z,97.90
2023-09-10T00:53:01.791Z,97.90
2023-09-10T00:55:49.771Z,98.00
2023-09-10T00:58:38.931Z,98.00
2023-09-10T01:01:27.066Z,98.00
2023-09-10T01:04:15.186Z,98.00
2023-09-10T01:07:03.886Z,98.10
2023-09-10T01:09:51.381Z,98.20
2023-09-10T01:12:45.687Z,98.30
2023-09-10T01:15:40.422Z,98.30
2023-09-10T01:18:33.455Z,98.40
2023-09-10T01:21:43.927Z,98.50
2023-09-10T01:24:46.516Z,98.40
2023-09-10T01:27:33.957Z,98.50
2023-09-10T01:30:21.550Z,98.50
2023-09-10T01:33:20.123Z,98.60
2023-09-10T01:36:13.908Z,98.60
2023-09-10T01:39:09.142Z,98.70
2023-09-10T01:41:58.987Z,98.70
2023-09-10T01:44:47.676Z,98.70
2023-09-10T01:47:35.068Z,98.70
2023-09-10T01:50:22.640Z,98.80
2023-09-10T01:53:09.850Z,98.80
2023-09-10T01:55:57.647Z,98.80
2023-09-10T01:58:46.945Z,98.90
2023-09-10T02:01:34.802Z,99.00
2023-09-10T02:04:23.705Z,99.00
2023-09-10T02:07:10.910Z,99.00
2023-09-10T02:09:59.589Z,99.00
2023-09-10T02:12:46.779Z,99.00
2023-09-10T02:15:35.137Z,99.00
2023-09-10T02:18:23.551Z,99.00
2023-09-10T02:21:11.930Z,99.10
2023-09-10T02:23:59.985Z,99.10
2023-09-10T02:26:47.252Z,99.20
2023-09-10T02:29:34.569Z,99.30
2023-09-10T02:32:24.279Z,99.20
2023-09-10T02:35:11.374Z,99.70
2023-09-10T02:37:58.355Z,99.30
2023-09-10T02:40:45.902Z,99.40
2023-09-10T02:43:33.439Z,99.30
2023-09-10T02:46:20.381Z,99.40
2023-09-10T02:49:08.888Z,99.40
2023-09-10T02:51:56.359Z,99.40
2023-09-10T02:54:43.618Z,99.40
2023-09-10T02:57:30.695Z,99.40
2023-09-10T03:00:21.014Z,99.40
2023-09-10T03:03:08.292Z,99.50
2023-09-10T03:05:57.030Z,99.50
2023-09-10T03:08:45.994Z,99.60
2023-09-10T03:11:35.266Z,99.70
2023-09-10T03:14:22.690Z,99.60
2023-09-10T03:17:12.295Z,99.60
2023-09-10T03:19:59.149Z,99.60
2023-09-10T03:22:47.756Z,99.70
2023-09-10T03:25:38.247Z,99.70
2023-09-10T03:28:25.817Z,99.80
2023-09-10T03:31:12.803Z,99.70
2023-09-10T03:33:59.782Z,99.70
2023-09-10T03:36:47.596Z,99.80
2023-09-10T03:39:37.943Z,99.80
2023-09-10T03:42:26.049Z,99.80
2023-09-10T03:45:13.241Z,99.80
2023-09-10T03:48:00.788Z,99.80
2023-09-10T03:50:47.982Z,99.90
2023-09-10T03:53:35.427Z,99.80
2023-09-10T03:56:25.416Z,99.90
2023-09-10T03:59:12.864Z,99.90
2023-09-10T04:02:01.444Z,99.90
2023-09-10T04:04:49.006Z,99.90
2023-09-10T04:07:36.446Z,99.90
2023-09-10T04:10:23.559Z,99.90
2023-09-10T04:13:12.721Z,99.90
2023-09-10T04:15:59.929Z,99.90
2023-09-10T04:18:48.040Z,99.90
2023-09-10T04:21:36.431Z,99.90
2023-09-10T04:24:24.854Z,99.90
2023-09-10T04:27:12.443Z,99.90
2023-09-10T04:30:01.072Z,99.90
2023-09-10T04:32:48.295Z,99.90
2023-09-10T04:35:35.285Z,99.90
2023-09-10T04:38:22.408Z,99.90
2023-09-10T04:41:09.454Z,99.90
2023-09-10T04:43:56.756Z,99.90
2023-09-10T04:46:45.529Z,99.90
2023-09-10T04:49:33.266Z,99.90
2023-09-10T04:52:21.020Z,99.90
2023-09-10T04:55:09.082Z,99.90
2023-09-10T04:57:56.319Z,99.90
2023-09-10T05:00:43.904Z,99.90
2023-09-10T05:03:33.369Z,99.90
2023-09-10T05:06:21.967Z,99.90
2023-09-10T05:09:09.994Z,99.90
2023-09-10T05:11:58.940Z,99.90
2023-09-10T05:14:46.060Z,99.90
2023-09-10T05:17:33.373Z,99.90
2023-09-10T05:20:21.957Z,99.90
2023-09-10T05:23:09.182Z,99.90
2023-09-10T05:25:56.606Z,99.90
2023-09-10T05:28:46.920Z,99.90
2023-09-10T05:31:35.082Z,99.90
2023-09-10T05:34:22.112Z,99.90
2023-09-10T05:37:10.926Z,99.90
2023-09-10T05:39:58.083Z,99.90
2023-09-10T05:42:46.773Z,99.90
2023-09-10T05:45:35.711Z,99.90
2023-09-10T05:48:23.553Z,99.90
2023-09-10T05:51:11.203Z,99.90
2023-09-10T05:54:00.254Z,99.90
2023-09-10T05:56:48.218Z,99.90
2023-09-10T05:59:35.448Z,99.90
2023-09-10T06:02:23.224Z,99.90
2023-09-10T06:05:11.307Z,99.90
2023-09-10T06:07:59.228Z,99.90
2023-09-10T06:10:47.955Z,99.90
2023-09-10T06:13:35.246Z,99.90
2023-09-10T06:16:22.913Z,99.90
2023-09-10T06:19:11.201Z,99.90
2023-09-10T06:21:58.483Z,99.90
2023-09-10T06:24:45.496Z,99.90
2023-09-10T06:27:34.069Z,99.90
2023-09-10T06:30:21.388Z,99.90
2023-09-10T06:33:09.773Z,99.90
2023-09-10T06:35:57.746Z,99.90
2023-09-10T06:38:48.990Z,99.90
2023-09-10T06:41:37.240Z,99.90
2023-09-10T06:44:26.111Z,99.90
2023-09-10T06:47:13.725Z,99.90
2023-09-10T06:50:01.217Z,99.90
2023-09-10T06:52:48.342Z,99.90
2023-09-10T06:55:35.486Z,99.90
2023-09-10T06:58:22.764Z,99.90
2023-09-10T07:01:11.184Z,99.90
2023-09-10T07:03:59.726Z,99.80
2023-09-10T07:06:48.270Z,99.40
2023-09-10T07:09:35.428Z,99.20
2023-09-10T07:12:22.719Z,99.10
2023-09-10T07:15:10.272Z,98.50
2023-09-10T07:17:58.898Z,97.80
2023-09-10T07:20:46.517Z,97.40
2023-09-10T07:23:33.918Z,96.80
2023-09-10T07:26:20.928Z,96.50
2023-09-10T07:29:08.220Z,96.30
2023-09-10T07:31:55.961Z,95.70
2023-09-10T07:34:44.674Z,95.10
2023-09-10T07:37:31.952Z,94.40
2023-09-10T07:40:19.182Z,94.00
2023-09-10T07:43:06.528Z,93.20
2023-09-10T07:45:53.784Z,92.70
2023-09-10T07:48:41.221Z,92.30
2023-09-10T07:51:29.938Z,92.00
2023-09-10T07:54:17.534Z,92.10
2023-09-10T07:57:05.642Z,91.60
2023-09-10T07:59:52.870Z,90.80
2023-09-10T08:02:40.363Z,90.20
2023-09-10T08:05:27.466Z,89.40
2023-09-10T08:08:15.866Z,90.00
2023-09-10T08:11:03.199Z,88.70
2023-09-10T08:13:50.627Z,87.90
2023-09-10T08:16:38.645Z,87.30
2023-09-10T08:19:25.535Z,85.40
2023-09-10T08:22:12.776Z,83.70
2023-09-10T08:25:01.157Z,82.50
2023-09-10T08:27:48.476Z,81.40
2023-09-10T08:30:36.381Z,80.50
2023-09-10T08:33:26.396Z,80.00
2023-09-10T08:36:13.991Z,79.50
2023-09-10T08:39:00.926Z,77.40
2023-09-10T08:41:58.876Z,76.70
2023-09-10T08:44:52.632Z,75.70
2023-09-10T08:47:41.870Z,73.90
2023-09-10T08:50:30.371Z,71.50
2023-09-10T08:53:21.699Z,69.20
2023-09-10T08:56:10.398Z,66.90
2023-09-10T08:59:00.753Z,65.20
2023-09-10T09:01:49.572Z,63.20
2023-09-10T09:04:37.086Z,60.20
2023-09-10T09:07:30.131Z,56.90
2023-09-10T09:10:23.750Z,54.30
2023-09-10T09:13:13.497Z,52.00
2023-09-10T09:16:03.094Z,51.10
2023-09-10T09:18:51.140Z,50.50
2023-09-10T09:21:40.320Z,52.70
2023-09-10T09:24:27.960Z,53.50
2023-09-10T09:27:17.296Z,53.50
2023-09-10T09:30:07.537Z,53.00
2023-09-10T09:32:57.833Z,53.30
2023-09-10T09:35:47.456Z,53.60
2023-09-10T09:38:34.639Z,53.90
2023-09-10T09:41:22.095Z,53.00
2023-09-10T09:44:10.168Z,53.00
2023-09-10T09:46:59.658Z,50.80
2023-09-10T09:49:50.680Z,49.00
2023-09-10T09:52:37.754Z,48.30
2023-09-10T09:55:24.935Z,47.90
2023-09-10T09:58:12.660Z,46.20
2023-09-10T10:01:00.953Z,45.40
2023-09-10T10:03:48.549Z,43.00
2023-09-10T10:06:48.622Z,41.20
2023-09-10T10:09:37.561Z,39.30
2023-09-10T10:12:28.386Z,39.40
2023-09-10T10:15:16.004Z,37.30
2023-09-10T10:18:06.262Z,35.00
2023-09-10T10:20:53.579Z,32.50
2023-09-10T10:23:44.450Z,32.50
2023-09-10T10:26:32.660Z,33.30
2023-09-10T10:29:21.150Z,32.80
2023-09-10T10:32:15.603Z,33.10
2023-09-10T10:35:05.501Z,34.30
2023-09-10T10:37:59.673Z,34.30
2023-09-10T10:40:49.782Z,35.10
2023-09-10T10:43:42.848Z,35.50
2023-09-10T10:46:31.839Z,37.10
2023-09-10T10:49:20.161Z,39.60
2023-09-10T10:52:10.328Z,41.20
2023-09-10T10:54:59.616Z,43.00
2023-09-10T10:57:48.777Z,43.90
2023-09-10T11:00:36.031Z,44.90
2023-09-10T11:03:23.970Z,46.40
2023-09-10T11:06:11.651Z,45.80
2023-09-10T11:08:58.668Z,46.30
2023-09-10T11:11:51.219Z,49.00
2023-09-10T11:14:53.260Z,48.80
2023-09-10T11:17:41.987Z,48.70
2023-09-10T11:20:51.018Z,49.00
2023-09-10T11:23:40.395Z,48.40
2023-09-10T11:26:32.301Z,50.50
2023-09-10T11:29:20.609Z,51.50
2023-09-10T11:32:19.181Z,50.40
2023-09-10T11:35:27.784Z,51.80
2023-09-10T11:38:15.171Z,50.60
2023-09-10T11:41:03.152Z,50.00
2023-09-10T11:43:51.906Z,49.60
2023-09-10T11:46:39.330Z,51.30
2023-09-10T11:49:27.073Z,50.50
2023-09-10T11:52:15.561Z,50.50
2023-09-10T11:55:03.242Z,50.30
2023-09-10T11:57:51.954Z,50.70
2023-09-10T12:00:43.109Z,50.70
2023-09-10T12:03:31.567Z,52.70
2023-09-10T12:06:18.816Z,53.30
2023-09-10T12:09:08.314Z,52.60
2023-09-10T12:11:56.833Z,50.60
2023-09-10T12:14:44.518Z,50.20
2023-09-10T12:17:31.971Z,50.90
2023-09-10T12:20:22.983Z,51.70
2023-09-10T12:23:11.795Z,51.80
2023-09-10T12:26:01.980Z,50.80
2023-09-10T12:28:51.336Z,51.10
2023-09-10T12:31:39.128Z,50.80
2023-09-10T12:34:27.082Z,49.60
2023-09-10T12:37:16.850Z,50.30
2023-09-10T12:40:05.951Z,51.00
2023-09-10T12:42:55.438Z,52.40
2023-09-10T12:45:42.732Z,51.70
2023-09-10T12:48:30.151Z,50.40
2023-09-10T12:51:17.565Z,50.20
2023-09-10T12:54:05.042Z,49.70
2023-09-10T12:56:53.190Z,49.30
2023-09-10T12:59:42.419Z,49.80
2023-09-10T13:02:34.522Z,51.00
2023-09-10T13:05:22.462Z,50.10
2023-09-10T13:08:10.023Z,51.10
2023-09-10T13:10:57.632Z,50.10
2023-09-10T13:13:45.135Z,49.90
2023-09-10T13:16:34.057Z,49.80
2023-09-10T13:19:21.389Z,49.70
2023-09-10T13:22:09.819Z,50.20
2023-09-10T13:24:57.021Z,51.00
2023-09-10T13:27:44.331Z,50.00
2023-09-10T13:30:31.731Z,49.30
2023-09-10T13:33:20.214Z,50.10
2023-09-10T13:36:08.076Z,48.60
2023-09-10T13:38:54.996Z,48.00
2023-09-10T13:41:42.281Z,49.00
2023-09-10T13:44:29.719Z,48.30
2023-09-10T13:47:16.787Z,48.40
2023-09-10T13:50:10.393Z,48.30
2023-09-10T13:52:57.640Z,49.00
2023-09-10T13:55:47.215Z,49.80
2023-09-10T13:58:34.543Z,49.30
2023-09-10T14:01:21.966Z,49.50
2023-09-10T14:04:09.438Z,48.70
2023-09-10T14:06:58.237Z,48.70
2023-09-10T14:09:45.769Z,49.10
2023-09-10T14:12:33.002Z,49.40
2023-09-10T14:15:20.183Z,49.50
2023-09-10T14:18:07.904Z,50.40
2023-09-10T14:20:54.933Z,50.50
2023-09-10T14:23:43.671Z,50.30
2023-09-10T14:26:30.995Z,50.40
2023-09-10T14:29:18.621Z,50.00
2023-09-10T14:32:06.858Z,50.10
2023-09-10T14:34:53.991Z,49.70
2023-09-10T14:37:41.332Z,50.10
2023-09-10T14:40:30.196Z,50.10
2023-09-10T14:43:17.121Z,49.80
2023-09-10T14:46:04.307Z,49.70
2023-09-10T14:48:52.129Z,50.20
2023-09-10T14:51:39.303Z,50.00
2023-09-10T14:54:26.333Z,50.30
2023-09-10T14:57:14.895Z,50.90
2023-09-10T15:00:02.476Z,50.50
2023-09-10T15:02:49.841Z,50.30
2023-09-10T15:05:37.268Z,51.00
2023-09-10T15:08:25.574Z,50.50
2023-09-10T15:11:12.657Z,50.70
2023-09-10T15:14:01.209Z,50.70
2023-09-10T15:16:49.789Z,50.70
2023-09-10T15:19:38.156Z,50.60
2023-09-10T15:22:25.410Z,50.90
2023-09-10T15:25:12.528Z,50.40
2023-09-10T15:27:59.990Z,50.70
2023-09-10T15:30:49.083Z,52.50
2023-09-10T15:33:36.346Z,52.60
2023-09-10T15:36:23.501Z,52.20
2023-09-10T15:39:12.662Z,52.10
2023-09-10T15:42:00.122Z,51.50
2023-09-10T15:44:47.727Z,52.00
2023-09-10T15:47:37.487Z,53.10
2023-09-10T15:50:24.783Z,53.00
2023-09-10T15:53:12.506Z,53.10
2023-09-10T15:55:59.687Z,53.40
2023-09-10T15:58:46.969Z,53.10
2023-09-10T16:01:34.195Z,53.30
2023-09-10T16:04:22.941Z,54.80
2023-09-10T16:07:10.143Z,54.30
2023-09-10T16:10:00.644Z,53.90
2023-09-10T16:12:47.900Z,54.40
2023-09-10T16:15:35.813Z,54.40
2023-09-10T16:18:22.793Z,54.60
2023-09-10T16:21:11.329Z,54.80
2023-09-10T16:23:58.434Z,55.90
2023-09-10T16:26:46.028Z,55.60
2023-09-10T16:29:33.472Z,55.60
2023-09-10T16:32:20.954Z,56.60
2023-09-10T16:35:09.856Z,56.30
2023-09-10T16:37:58.718Z,56.40
2023-09-10T16:40:45.670Z,56.70
2023-09-10T16:43:32.616Z,57.20
2023-09-10T16:46:20.070Z,57.50
2023-09-10T16:49:09.556Z,57.70
2023-09-10T16:51:56.847Z,57.70
2023-09-10T16:54:45.204Z,57.90
2023-09-10T16:57:32.541Z,58.30
2023-09-10T17:00:20.212Z,58.50
2023-09-10T17:03:07.637Z,58.40
2023-09-10T17:05:55.202Z,58.70
2023-09-10T17:08:45.554Z,58.70
2023-09-10T17:11:35.007Z,59.60
2023-09-10T17:14:22.358Z,59.30
2023-09-10T17:17:09.385Z,59.40
2023-09-10T17:19:56.678Z,59.90
2023-09-10T17:22:44.755Z,60.70
2023-09-10T17:25:32.667Z,60.00
2023-09-10T17:28:21.169Z,61.40
2023-09-10T17:31:08.462Z,63.10
2023-09-10T17:33:55.903Z,64.30
2023-09-10T17:36:42.952Z,65.30
2023-09-10T17:39:30.510Z,64.50
2023-09-10T17:42:18.041Z,66.10
2023-09-10T17:45:08.376Z,66.60
2023-09-10T17:47:56.120Z,65.20
2023-09-10T17:50:43.602Z,66.40
2023-09-10T17:53:31.083Z,67.40
2023-09-10T17:56:19.326Z,68.00
2023-09-10T17:59:06.715Z,68.70
2023-09-10T18:01:55.424Z,69.50
2023-09-10T18:04:42.822Z,69.90
2023-09-10T18:07:30.580Z,70.70
2023-09-10T18:10:17.734Z,70.90
2023-09-10T18:13:05.082Z,71.50
2023-09-10T18:15:52.384Z,71.80
2023-09-10T18:18:40.720Z,72.40
2023-09-10T18:21:28.574Z,72.60
2023-09-10T18:24:15.750Z,73.10
2023-09-10T18:27:02.930Z,73.40
2023-09-10T18:29:50.194Z,74.00
2023-09-10T18:32:37.422Z,74.10
2023-09-10T18:35:26.705Z,74.50
2023-09-10T18:38:14.261Z,74.90
2023-09-10T18:41:01.525Z,75.60
2023-09-10T18:43:48.826Z,75.70
2023-09-10T18:46:38.555Z,76.30
2023-09-10T18:49:25.793Z,77.60
2023-09-10T18:52:16.453Z,77.20
2023-09-10T18:55:04.063Z,77.70
2023-09-10T18:57:51.928Z,77.90
2023-09-10T19:00:39.187Z,78.20
2023-09-10T19:03:26.851Z,78.80
2023-09-10T19:06:14.732Z,79.00
2023-09-10T19:09:03.833Z,79.20
2023-09-10T19:11:51.027Z,79.60
2023-09-10T19:14:38.323Z,80.10
2023-09-10T19:17:25.568Z,80.30
2023-09-10T19:20:13.470Z,80.60
2023-09-10T19:23:01.310Z,81.10
2023-09-10T19:25:52.748Z,81.40
2023-09-10T19:28:39.994Z,81.70
2023-09-10T19:31:32.293Z,82.10
2023-09-10T19:34:19.573Z,83.30
2023-09-10T19:37:07.065Z,82.70
2023-09-10T19:39:55.723Z,82.70
2023-09-10T19:42:44.423Z,83.30
2023-09-10T19:45:31.635Z,83.50
2023-09-10T19:48:18.868Z,84.00
2023-09-10T19:51:08.688Z,84.40
2023-09-10T19:53:56.000Z,84.80
2023-09-10T19:56:43.381Z,85.10
2023-09-10T19:59:33.081Z,85.60
2023-09-10T20:02:20.380Z,85.50
2023-09-10T20:05:08.557Z,86.10
2023-09-10T20:07:55.975Z,86.30
2023-09-10T20:10:43.555Z,86.60
2023-09-10T20:13:30.823Z,87.00
2023-09-10T20:16:19.343Z,87.40
2023-09-10T20:19:06.759Z,87.70
2023-09-10T20:21:54.336Z,87.80
2023-09-10T20:24:41.490Z,88.10
2023-09-10T20:27:30.676Z,88.60
2023-09-10T20:30:18.732Z,88.80
2023-09-10T20:33:07.706Z,89.10
2023-09-10T20:35:55.297Z,89.40
2023-09-10T20:38:42.736Z,89.70
2023-09-10T20:41:29.929Z,89.90
2023-09-10T20:44:17.158Z,90.10
2023-09-10T20:47:04.223Z,90.20
2023-09-10T20:49:53.027Z,90.30
2023-09-10T20:52:41.329Z,90.50
2023-09-10T20:55:28.704Z,90.60
2023-09-10T20:58:15.887Z,90.70
2023-09-10T21:01:03.915Z,90.80
2023-09-10T21:03:51.470Z,90.90
2023-09-10T21:06:40.932Z,91.00
2023-09-10T21:09:27.968Z,91.10
2023-09-10T21:12:14.906Z,91.20
2023-09-10T21:15:02.033Z,91.20
2023-09-10T21:17:49.282Z,91.30
2023-09-10T21:20:36.383Z,91.40
2023-09-10T21:23:28.039Z,91.50
2023-09-10T21:26:15.492Z,91.60
2023-09-10T21:29:02.575Z,91.70
2023-09-10T21:31:49.446Z,91.80
2023-09-10T21:34:36.554Z,92.20
2023-09-10T21:37:23.818Z,92.00
2023-09-10T21:40:13.985Z,92.00
2023-09-10T21:43:01.126Z,92.10
2023-09-10T21:45:48.660Z,92.10
2023-09-10T21:48:35.856Z,92.20
2023-09-10T21:51:23.023Z,92.30
2023-09-10T21:54:10.237Z,92.40
2023-09-10T21:56:59.224Z,92.60
2023-09-10T21:59:46.875Z,92.70
2023-09-10T22:02:34.166Z,92.60
2023-09-10T22:05:21.746Z,92.70
2023-09-10T22:08:09.140Z,92.80
2023-09-10T22:11:00.233Z,92.90
2023-09-10T22:13:49.034Z,92.90
2023-09-10T22:16:36.339Z,93.00
2023-09-10T22:19:23.263Z,93.00
2023-09-10T22:22:10.522Z,93.00
2023-09-10T22:24:57.793Z,93.20
2023-09-10T22:27:45.900Z,93.20
2023-09-10T22:30:35.057Z,93.30
2023-09-10T22:33:22.170Z,93.40
2023-09-10T22:36:23.489Z,93.50
2023-09-10T22:39:16.947Z,93.60
2023-09-10T22:42:04.111Z,93.70
2023-09-10T22:44:51.531Z,93.80
2023-09-10T22:47:40.030Z,93.90
2023-09-10T22:50:27.285Z,93.90
2023-09-10T22:53:14.477Z,94.00
2023-09-10T22:56:01.910Z,94.00
2023-09-10T22:58:49.579Z,94.00
2023-09-10T23:01:37.206Z,94.10
2023-09-10T23:04:25.895Z,94.10
2023-09-10T23:07:13.149Z,94.20
2023-09-10T23:10:08.298Z,94.20
2023-09-10T23:13:03.451Z,94.30
2023-09-10T23:15:50.915Z,94.30
2023-09-10T23:18:38.278Z,94.40
2023-09-10T23:21:26.847Z,94.50
2023-09-10T23:24:13.912Z,94.50
2023-09-10T23:27:03.251Z,94.60
2023-09-10T23:29:50.696Z,94.70
2023-09-10T23:32:37.677Z,94.70
2023-09-10T23:35:25.225Z,94.80
2023-09-10T23:38:13.929Z,94.80
2023-09-10T23:41:01.659Z,95.00
2023-09-10T23:43:48.975Z,95.10
2023-09-10T23:46:37.927Z,95.10
2023-09-10T23:49:26.401Z,95.10
2023-09-10T23:52:13.434Z,95.20
2023-09-10T23:55:02.238Z,95.30
2023-09-10T23:57:49.547Z,95.40
